Time;durP1;ratioP1;P1;durP2;ratioP2;P2;SDS_P1;SDS_P2;PMS_P1;PMS_P2;Temp;Humidity;BMP_temperature;BMP_pressure;BME280_temperature;BME280_humidity;BME280_pressure;Samples;Min_cycle;Max_cycle;Signal;HPM_P1;HPM_P2
2022/11/13 00:00:28;;;;;;;15.93;14.27;;;5.20;99.90;;;;;;5038718;28;20247;-85
2022/11/13 00:02:55;;;;;;;15.05;13.55;;;5.20;99.90;;;;;;5038931;28;20225;-85
2022/11/13 00:05:21;;;;;;;14.95;13.00;;;5.20;99.90;;;;;;5050113;28;20220;-85
2022/11/13 00:07:48;;;;;;;14.23;12.50;;;5.20;99.90;;;;;;5043653;28;20213;-85
2022/11/13 00:10:16;;;;;;;12.70;11.50;;;5.10;99.90;;;;;;5047273;28;20598;-85
2022/11/13 00:12:42;;;;;;;13.77;12.40;;;5.10;99.90;;;;;;5070444;22;20732;-83
2022/11/13 00:15:11;;;;;;;12.85;11.40;;;5.10;99.90;;;;;;5064558;28;20207;-83
2022/11/13 00:17:38;;;;;;;14.50;12.60;;;5.10;99.90;;;;;;5074767;28;20212;-84
2022/11/13 00:20:05;;;;;;;16.85;11.70;;;5.10;99.90;;;;;;5074689;28;20247;-84
2022/11/13 00:22:32;;;;;;;10.95;9.95;;;5.10;99.90;;;;;;5051742;28;20226;-84
2022/11/13 00:24:58;;;;;;;12.88;11.57;;;5.10;99.90;;;;;;5046731;28;20194;-84
2022/11/13 00:27:25;;;;;;;15.00;12.23;;;5.00;99.90;;;;;;5058765;28;20214;-82
2022/11/13 00:29:52;;;;;;;13.50;12.30;;;5.10;99.90;;;;;;5049395;28;20718;-83
2022/11/13 00:32:20;;;;;;;14.00;12.50;;;5.00;99.90;;;;;;5038520;28;20231;-84
2022/11/13 00:34:47;;;;;;;13.38;12.05;;;5.00;99.90;;;;;;5038614;28;20202;-84
2022/11/13 00:37:13;;;;;;;12.65;11.35;;;5.00;99.90;;;;;;5039001;28;20209;-83
2022/11/13 00:39:40;;;;;;;10.90;9.98;;;4.90;99.90;;;;;;5038020;28;20698;-84
2022/11/13 00:42:07;;;;;;;11.55;10.45;;;4.90;99.90;;;;;;5038336;28;20233;-84
2022/11/13 00:44:34;;;;;;;12.57;11.25;;;4.90;99.90;;;;;;5038369;28;20206;-83
2022/11/13 00:47:00;;;;;;;12.23;11.02;;;4.90;99.90;;;;;;5038453;28;20209;-84
2022/11/13 00:49:28;;;;;;;12.35;10.77;;;4.90;99.90;;;;;;5038202;28;20222;-84
2022/11/13 00:51:55;;;;;;;14.40;13.05;;;4.80;99.90;;;;;;5050081;28;20240;-84
2022/11/13 00:54:22;;;;;;;12.45;11.23;;;4.80;99.90;;;;;;5039113;28;20198;-82
2022/11/13 00:56:48;;;;;;;13.27;12.07;;;4.80;99.90;;;;;;5039117;28;20219;-84
2022/11/13 00:59:15;;;;;;;14.02;12.63;;;4.90;99.90;;;;;;5055422;28;20212;-84
2022/11/13 01:01:42;;;;;;;13.93;12.65;;;4.80;99.90;;;;;;5058391;28;20226;-85
2022/11/13 01:04:09;;;;;;;12.93;11.73;;;4.80;99.90;;;;;;5042795;28;20207;-84
2022/11/13 01:06:37;;;;;;;13.77;12.57;;;4.80;99.90;;;;;;5038717;28;20206;-84
2022/11/13 01:09:04;;;;;;;13.00;11.70;;;4.80;99.90;;;;;;5038648;28;20202;-84
2022/11/13 01:11:31;;;;;;;11.07;10.05;;;4.80;99.90;;;;;;5043916;28;20232;-84
2022/11/13 01:13:58;;;;;;;11.82;10.73;;;4.80;99.90;;;;;;5058260;28;20193;-84
2022/11/13 01:16:26;;;;;;;12.23;11.02;;;4.80;99.90;;;;;;5058285;28;20206;-84
2022/11/13 01:18:54;;;;;;;12.77;11.45;;;4.70;99.90;;;;;;5057908;28;20209;-84
2022/11/13 01:21:23;;;;;;;13.20;11.73;;;4.70;99.90;;;;;;5057549;28;20210;-83
2022/11/13 01:23:53;;;;;;;12.88;11.05;;;4.70;99.90;;;;;;5057759;28;20206;-84
2022/11/13 01:26:22;;;;;;;12.20;11.02;;;4.60;99.90;;;;;;5054920;28;20201;-84
2022/11/13 01:28:49;;;;;;;10.88;9.82;;;4.60;99.90;;;;;;5038344;28;20232;-84
2022/11/13 01:31:18;;;;;;;10.07;9.18;;;4.60;99.90;;;;;;5040299;28;20234;-84
2022/11/13 01:33:46;;;;;;;9.25;8.35;;;4.60;99.90;;;;;;5055496;28;20237;-83
2022/11/13 01:36:15;;;;;;;12.13;10.55;;;4.60;99.90;;;;;;5057301;28;20212;-83
2022/11/13 01:38:42;;;;;;;10.98;9.88;;;4.60;99.90;;;;;;5057487;28;20206;-84
2022/11/13 01:41:16;;;;;;;11.43;10.25;;;4.60;99.90;;;;;;5061699;28;20205;-82
2022/11/13 01:43:43;;;;;;;11.13;10.02;;;4.60;99.90;;;;;;5058200;28;20194;-83
2022/11/13 01:46:18;;;;;;;10.15;8.88;;;4.50;99.90;;;;;;5037877;28;20206;-84
2022/11/13 01:48:49;;;;;;;9.18;8.38;;;4.50;99.90;;;;;;5039723;28;20415;-84
2022/11/13 01:51:21;;;;;;;10.25;9.35;;;4.50;99.90;;;;;;5057598;28;20733;-84
2022/11/13 01:53:48;;;;;;;10.10;9.10;;;4.50;99.90;;;;;;5053640;28;20209;-84
2022/11/13 01:56:18;;;;;;;11.65;10.43;;;4.50;99.90;;;;;;5048093;28;20212;-84
2022/11/13 01:58:51;;;;;;;11.48;10.40;;;4.50;99.90;;;;;;5057312;28;20209;-84
2022/11/13 02:01:17;;;;;;;12.68;11.48;;;4.50;99.90;;;;;;5058068;28;20202;-85
2022/11/13 02:03:44;;;;;;;12.60;10.25;;;4.40;99.90;;;;;;5057407;28;20222;-84
2022/11/13 02:06:11;;;;;;;11.25;10.18;;;4.40;99.90;;;;;;5057181;28;20215;-84
2022/11/13 02:12:02;;;;;;;9.55;8.65;;;4.40;99.90;;;;;;5056509;28;20247;-85
2022/11/13 02:14:29;;;;;;;12.75;11.13;;;4.40;99.90;;;;;;5037841;28;20214;-84
2022/11/13 02:17:01;;;;;;;9.82;8.82;;;4.30;99.90;;;;;;5037868;28;20217;-84
2022/11/13 02:19:32;;;;;;;9.88;8.98;;;4.30;99.90;;;;;;5038120;28;20216;-84
2022/11/13 02:22:06;;;;;;;11.95;10.57;;;4.30;99.90;;;;;;5017484;28;20229;-84
2022/11/13 02:24:38;;;;;;;11.77;10.70;;;4.20;99.90;;;;;;5043889;28;20200;-84
2022/11/13 02:27:07;;;;;;;10.80;9.93;;;4.20;99.90;;;;;;5057298;28;20201;-83
2022/11/13 02:29:34;;;;;;;10.82;9.73;;;4.20;99.90;;;;;;5044900;28;20202;-84
2022/11/13 02:32:00;;;;;;;9.70;8.80;;;4.20;99.90;;;;;;5061748;28;20231;-84
2022/11/13 02:34:27;;;;;;;8.65;7.72;;;4.20;99.90;;;;;;5048822;28;20199;-84
2022/11/13 02:36:54;;;;;;;9.82;8.82;;;4.10;99.90;;;;;;5036773;28;20201;-84
2022/11/13 02:39:21;;;;;;;12.13;10.48;;;4.10;99.90;;;;;;5035541;28;20202;-84
2022/11/13 02:41:49;;;;;;;10.98;9.98;;;4.20;99.90;;;;;;5036309;28;20237;-83
2022/11/13 02:44:15;;;;;;;10.07;9.10;;;4.20;99.90;;;;;;5035618;28;20206;-84
2022/11/13 02:46:42;;;;;;;10.15;9.32;;;4.10;99.90;;;;;;5036522;28;20213;-84
2022/11/13 02:49:09;;;;;;;10.93;9.95;;;4.10;99.90;;;;;;5035612;28;20210;-83
2022/11/13 02:51:36;;;;;;;8.65;7.85;;;4.10;99.90;;;;;;5053635;28;20233;-84
2022/11/13 02:54:03;;;;;;;10.07;9.02;;;4.10;99.90;;;;;;5055502;28;20212;-84
2022/11/13 02:56:30;;;;;;;8.88;8.05;;;4.10;99.90;;;;;;5038648;28;20201;-82
2022/11/13 02:58:58;;;;;;;9.40;8.60;;;4.00;99.90;;;;;;5035377;28;20700;-84
2022/11/13 03:01:25;;;;;;;8.55;7.75;;;4.00;99.90;;;;;;5051828;28;20218;-85
2022/11/13 03:03:51;;;;;;;12.50;8.23;;;3.90;99.90;;;;;;5055009;28;20235;-84
2022/11/13 03:06:18;;;;;;;9.32;8.43;;;4.00;99.90;;;;;;5041111;28;20198;-84
2022/11/13 03:08:45;;;;;;;10.15;9.13;;;3.90;99.90;;;;;;5054677;28;20218;-84
2022/11/13 03:11:12;;;;;;;9.63;8.80;;;4.00;99.90;;;;;;5041307;28;20232;-84
2022/11/13 03:13:40;;;;;;;12.15;9.20;;;3.90;99.90;;;;;;5034440;28;20216;-84
2022/11/13 03:16:13;;;;;;;10.27;9.38;;;3.90;99.90;;;;;;5047400;28;20213;-84
2022/11/13 03:18:40;;;;;;;8.05;7.43;;;3.90;99.90;;;;;;5015475;28;20202;-84
2022/11/13 03:21:08;;;;;;;9.70;8.90;;;3.90;99.90;;;;;;5037974;28;20206;-82
2022/11/13 03:23:35;;;;;;;9.68;8.70;;;3.90;99.90;;;;;;5055187;28;20212;-83
2022/11/13 03:26:06;;;;;;;10.32;9.40;;;3.90;99.90;;;;;;5054643;28;20201;-84
2022/11/13 03:28:33;;;;;;;8.27;7.35;;;3.80;99.90;;;;;;5025220;28;20670;-84
2022/11/13 03:31:00;;;;;;;10.10;9.18;;;3.80;99.90;;;;;;5054322;28;20366;-83
2022/11/13 03:33:29;;;;;;;9.23;8.32;;;3.80;99.90;;;;;;5054485;28;20205;-84
2022/11/13 03:35:55;;;;;;;8.63;7.80;;;3.80;99.90;;;;;;5054804;28;20213;-84
2022/11/13 03:38:22;;;;;;;10.18;9.05;;;3.80;99.90;;;;;;5036045;28;20209;-84
2022/11/13 03:40:49;;;;;;;10.63;9.52;;;3.70;99.90;;;;;;5034573;28;20198;-84
2022/11/13 03:43:17;;;;;;;13.43;9.48;;;3.70;99.90;;;;;;5050658;28;20225;-85
2022/11/13 03:45:45;;;;;;;10.48;9.48;;;3.60;99.90;;;;;;5054434;28;20213;-83
2022/11/13 03:48:12;;;;;;;9.10;8.30;;;3.50;99.90;;;;;;5054748;28;20251;-83
2022/11/13 03:50:42;;;;;;;12.10;10.55;;;3.40;99.90;;;;;;5054323;28;20739;-82
2022/11/13 03:53:09;;;;;;;10.43;9.32;;;3.40;99.90;;;;;;5040098;28;20226;-84
2022/11/13 03:55:35;;;;;;;9.63;8.68;;;3.40;99.90;;;;;;5034912;28;20213;-84
2022/11/13 03:58:02;;;;;;;9.90;8.80;;;3.50;99.90;;;;;;5051499;28;20651;-84
2022/11/13 04:00:30;;;;;;;10.63;9.52;;;3.50;99.90;;;;;;5058158;28;20583;-84
2022/11/13 04:02:56;;;;;;;11.30;10.13;;;3.50;99.90;;;;;;5058892;28;20275;-84
2022/11/13 04:05:23;;;;;;;11.43;9.30;;;3.40;99.90;;;;;;5058335;28;20211;-84
2022/11/13 04:07:51;;;;;;;11.77;9.57;;;3.40;99.90;;;;;;5057616;28;20276;-84
2022/11/13 04:10:18;;;;;;;9.93;8.98;;;3.40;99.90;;;;;;5058079;28;20225;-83
2022/11/13 04:12:45;;;;;;;9.82;9.02;;;3.30;99.90;;;;;;5057692;28;20635;-84
2022/11/13 04:15:12;;;;;;;9.70;8.80;;;3.10;99.90;;;;;;5057801;28;20228;-84
2022/11/13 04:17:39;;;;;;;9.60;8.80;;;3.10;99.90;;;;;;5057829;28;20212;-84
2022/11/13 04:20:07;;;;;;;9.57;8.38;;;3.10;99.90;;;;;;5057771;28;20258;-84
2022/11/13 04:22:33;;;;;;;13.07;10.77;;;3.20;99.90;;;;;;5058070;28;20713;-84
2022/11/13 04:25:01;;;;;;;14.10;9.90;;;3.20;99.90;;;;;;5058048;28;20694;-82
2022/11/13 04:27:28;;;;;;;11.13;9.98;;;3.10;99.90;;;;;;5053529;28;20201;-83
2022/11/13 04:29:55;;;;;;;11.65;10.45;;;3.00;99.90;;;;;;5037845;28;20220;-84
2022/11/13 04:32:22;;;;;;;11.18;10.07;;;2.80;99.90;;;;;;5037824;28;20586;-84
2022/11/13 04:34:48;;;;;;;12.18;10.98;;;2.80;99.90;;;;;;5037990;28;20220;-82
2022/11/13 04:37:15;;;;;;;12.10;10.93;;;2.70;99.90;;;;;;5038183;28;20202;-84
2022/11/13 04:39:42;;;;;;;13.27;11.98;;;2.70;99.90;;;;;;5037079;28;20206;-84
2022/11/13 04:44:55;;;;;;;11.20;10.20;;;2.70;99.90;;;;;;5037981;28;20211;-84
2022/11/13 04:47:22;;;;;;;15.73;12.98;;;2.60;99.90;;;;;;5057376;28;20209;-84
2022/11/13 04:49:49;;;;;;;14.18;11.75;;;2.60;99.90;;;;;;5057007;28;20208;-83
2022/11/13 04:52:16;;;;;;;14.07;12.15;;;2.50;99.90;;;;;;5037062;28;20235;-84
2022/11/13 04:54:42;;;;;;;16.90;14.30;;;2.40;99.90;;;;;;5037503;28;20212;-84
2022/11/13 04:57:11;;;;;;;15.20;13.70;;;2.40;99.90;;;;;;5055726;28;20205;-82
2022/11/13 04:59:37;;;;;;;15.18;13.65;;;2.30;99.90;;;;;;5057157;28;20217;-83
2022/11/13 05:02:05;;;;;;;14.55;13.25;;;2.30;99.90;;;;;;5052787;28;20222;-83
2022/11/13 05:04:31;;;;;;;14.63;13.15;;;2.30;99.90;;;;;;5041708;28;20212;-83
2022/11/13 05:06:58;;;;;;;14.13;12.93;;;2.30;99.90;;;;;;5040760;28;20201;-83
2022/11/13 05:09:25;;;;;;;15.27;13.55;;;2.20;99.90;;;;;;5040545;28;20212;-83
2022/11/13 05:11:52;;;;;;;17.30;14.00;;;2.20;99.90;;;;;;5040257;28;20237;-83
2022/11/13 05:14:20;;;;;;;16.75;14.05;;;2.10;99.90;;;;;;5041642;28;20215;-83
2022/11/13 05:16:48;;;;;;;14.32;12.95;;;2.10;99.90;;;;;;5054140;28;20215;-83
2022/11/13 05:19:15;;;;;;;13.95;12.52;;;2.10;99.90;;;;;;5051220;28;20246;-83
2022/11/13 05:21:42;;;;;;;14.00;12.63;;;2.20;99.90;;;;;;5040077;28;20232;-83
2022/11/13 05:24:10;;;;;;;12.50;11.27;;;2.30;99.90;;;;;;5040020;28;20246;-82
2022/11/13 05:26:38;;;;;;;14.98;13.00;;;2.30;99.90;;;;;;5052314;28;20206;-83
2022/11/13 05:29:05;;;;;;;11.80;10.60;;;2.30;99.90;;;;;;5059585;28;20217;-81
2022/11/13 05:31:33;;;;;;;12.35;11.07;;;2.20;99.90;;;;;;5060528;28;20233;-79
2022/11/13 05:34:00;;;;;;;14.07;11.45;;;2.20;99.90;;;;;;5055483;28;20219;-79
2022/11/13 05:36:26;;;;;;;14.05;11.77;;;2.20;99.90;;;;;;5056748;28;20217;-83
2022/11/13 05:38:53;;;;;;;12.88;11.60;;;2.30;99.90;;;;;;5064226;28;20214;-84
2022/11/13 05:41:21;;;;;;;16.20;14.63;;;2.30;99.90;;;;;;5062014;28;20228;-84
2022/11/13 05:43:49;;;;;;;14.82;13.32;;;2.30;99.90;;;;;;5057897;28;20231;-84
2022/11/13 05:46:17;;;;;;;13.77;12.50;;;2.30;99.90;;;;;;5048543;28;20211;-82
2022/11/13 05:48:47;;;;;;;14.38;12.18;;;2.20;99.90;;;;;;5060126;28;20677;-83
2022/11/13 05:51:15;;;;;;;14.60;13.10;;;2.10;99.90;;;;;;5060185;28;20253;-84
2022/11/13 05:53:42;;;;;;;14.23;10.73;;;2.20;99.90;;;;;;5057270;28;20841;-83
2022/11/13 05:56:11;;;;;;;12.85;11.68;;;2.40;99.90;;;;;;5047072;28;20205;-83
2022/11/13 05:58:39;;;;;;;11.55;10.35;;;2.40;99.90;;;;;;5057748;28;20219;-84
2022/11/13 06:01:09;;;;;;;13.50;11.40;;;2.40;99.90;;;;;;5040391;28;20205;-83
2022/11/13 06:03:36;;;;;;;10.95;9.95;;;2.40;99.90;;;;;;5040341;28;20581;-81
2022/11/13 06:06:05;;;;;;;13.15;11.82;;;2.50;99.90;;;;;;5059447;28;20208;-82
2022/11/13 06:08:32;;;;;;;11.70;10.60;;;2.50;99.90;;;;;;5050998;28;20206;-83
2022/11/13 06:11:00;;;;;;;12.82;11.52;;;2.50;99.90;;;;;;5040413;28;20225;-83
2022/11/13 06:13:26;;;;;;;15.52;12.88;;;2.50;99.90;;;;;;5039770;28;20276;-83
2022/11/13 06:15:54;;;;;;;14.82;11.95;;;2.50;99.90;;;;;;5039727;28;20212;-84
2022/11/13 06:18:24;;;;;;;13.05;11.60;;;2.50;99.90;;;;;;5039555;28;20286;-83
2022/11/13 06:20:51;;;;;;;12.52;10.20;;;2.40;99.90;;;;;;5059778;28;20592;-83
2022/11/13 06:23:19;;;;;;;13.98;12.52;;;2.40;99.90;;;;;;5059433;28;20226;-85
2022/11/13 06:25:46;;;;;;;12.48;11.43;;;2.50;99.90;;;;;;5059586;28;20792;-83
2022/11/13 06:28:13;;;;;;;14.82;11.32;;;2.50;99.90;;;;;;5056486;28;20231;-84
2022/11/13 06:30:40;;;;;;;13.95;11.95;;;2.40;99.90;;;;;;5039332;28;20216;-83
2022/11/13 06:33:07;;;;;;;13.00;11.65;;;2.30;99.90;;;;;;5045823;28;20221;-83
2022/11/13 06:35:34;;;;;;;12.55;10.68;;;2.40;99.90;;;;;;5059505;28;20213;-83
2022/11/13 06:38:01;;;;;;;12.25;10.85;;;2.20;99.90;;;;;;5049766;28;20216;-83
2022/11/13 06:40:29;;;;;;;15.50;13.38;;;2.10;99.90;;;;;;5039647;28;20264;-83
2022/11/13 06:42:55;;;;;;;15.90;11.15;;;2.10;99.90;;;;;;5047648;28;20225;-83
2022/11/13 06:45:22;;;;;;;13.02;10.85;;;2.10;99.90;;;;;;5060016;28;20208;-83
2022/11/13 06:47:49;;;;;;;12.35;11.05;;;2.30;99.90;;;;;;5059691;28;20219;-82
2022/11/13 06:50:16;;;;;;;19.25;12.90;;;2.40;99.90;;;;;;5059304;28;20224;-82
2022/11/13 06:52:42;;;;;;;16.80;12.27;;;2.50;99.90;;;;;;5058299;28;20227;-84
2022/11/13 06:55:09;;;;;;;16.55;12.23;;;2.60;99.90;;;;;;5058415;28;20671;-81
2022/11/13 06:57:37;;;;;;;12.57;11.15;;;2.60;99.90;;;;;;5056992;28;20204;-82
2022/11/13 07:00:05;;;;;;;14.43;10.45;;;2.70;99.90;;;;;;5057888;28;20580;-82
2022/11/13 07:02:32;;;;;;;12.40;10.95;;;2.80;99.90;;;;;;5050279;28;20220;-82
2022/11/13 07:04:59;;;;;;;18.02;12.00;;;2.90;99.90;;;;;;5038422;28;20213;-82
2022/11/13 07:07:26;;;;;;;16.02;12.27;;;3.00;99.90;;;;;;5039055;28;20212;-83
2022/11/13 07:09:52;;;;;;;15.13;11.70;;;3.10;99.90;;;;;;5037770;28;20211;-83
2022/11/13 07:12:19;;;;;;;13.70;12.18;;;3.20;99.90;;;;;;5045912;28;20608;-83
2022/11/13 07:14:47;;;;;;;14.45;12.75;;;3.30;99.90;;;;;;5058642;28;20209;-83
2022/11/13 07:17:14;;;;;;;14.65;12.25;;;3.50;99.90;;;;;;5057368;28;20209;-83
2022/11/13 07:19:41;;;;;;;22.55;15.07;;;3.70;99.90;;;;;;5058243;28;20214;-83
2022/11/13 07:22:08;;;;;;;13.43;11.82;;;3.70;99.90;;;;;;5057086;28;20225;-83
2022/11/13 07:24:34;;;;;;;17.15;12.95;;;3.80;99.90;;;;;;5058583;28;20205;-84
2022/11/13 07:27:01;;;;;;;16.35;12.80;;;3.90;99.90;;;;;;5059042;28;20209;-83
2022/11/13 07:29:28;;;;;;;20.38;14.20;;;4.00;99.90;;;;;;5058388;28;20212;-84
2022/11/13 07:31:56;;;;;;;17.45;12.15;;;4.10;99.90;;;;;;5058135;28;20237;-82
2022/11/13 07:34:23;;;;;;;25.50;12.15;;;4.10;99.90;;;;;;5055247;28;20201;-84
2022/11/13 07:36:50;;;;;;;25.48;13.70;;;4.10;99.90;;;;;;5058827;28;20214;-83
2022/11/13 07:39:16;;;;;;;53.72;14.90;;;4.00;99.90;;;;;;5042946;28;20213;-83
2022/11/13 07:41:43;;;;;;;50.95;14.38;;;4.10;99.90;;;;;;5053315;28;20221;-83
2022/11/13 07:44:10;;;;;;;23.83;13.65;;;3.90;99.90;;;;;;5062405;28;20201;-83
2022/11/13 07:46:37;;;;;;;23.25;14.45;;;4.00;99.90;;;;;;5052224;28;20213;-83
2022/11/13 07:49:05;;;;;;;47.00;16.60;;;4.10;99.90;;;;;;5042391;28;20213;-82
2022/11/13 07:51:32;;;;;;;29.70;13.90;;;4.10;99.90;;;;;;5049017;28;20698;-83
2022/11/13 07:53:58;;;;;;;65.47;18.17;;;4.20;99.90;;;;;;5042752;28;20209;-82
2022/11/13 07:56:25;;;;;;;57.63;18.88;;;4.20;99.90;;;;;;5042648;28;20216;-83
2022/11/13 07:58:52;;;;;;;80.43;20.27;;;4.30;99.90;;;;;;5041574;28;20207;-83
2022/11/13 08:01:18;;;;;;;49.65;18.88;;;4.20;99.90;;;;;;5042265;28;20316;-83
2022/11/13 08:03:45;;;;;;;35.72;14.73;;;4.20;99.90;;;;;;5042255;28;20208;-83
2022/11/13 08:06:13;;;;;;;34.35;16.35;;;4.30;99.90;;;;;;5042173;28;20583;-83
2022/11/13 08:08:40;;;;;;;54.47;18.45;;;4.20;99.90;;;;;;5042373;28;20213;-83
2022/11/13 08:11:09;;;;;;;93.28;23.70;;;4.40;99.90;;;;;;5057869;28;20202;-83
2022/11/13 08:13:36;;;;;;;41.42;15.50;;;4.50;99.90;;;;;;5051231;28;20210;-82
2022/11/13 08:16:04;;;;;;;55.83;15.43;;;4.50;99.90;;;;;;5042185;28;20203;-82
2022/11/13 08:18:31;;;;;;;59.90;17.88;;;4.30;99.90;;;;;;5042440;28;20787;-81
2022/11/13 08:21:01;;;;;;;32.80;16.65;;;4.10;99.90;;;;;;5041016;28;20214;-82
2022/11/13 08:23:29;;;;;;;60.60;17.42;;;4.10;99.90;;;;;;5060061;28;20666;-82
2022/11/13 08:25:56;;;;;;;17.10;13.73;;;4.30;99.90;;;;;;5059471;28;20219;-82
2022/11/13 08:28:22;;;;;;;38.05;14.30;;;4.50;99.90;;;;;;5059524;28;20204;-82
2022/11/13 08:30:49;;;;;;;28.50;15.10;;;4.60;99.90;;;;;;5061032;28;20202;-80
2022/11/13 08:33:16;;;;;;;18.50;13.95;;;4.70;99.90;;;;;;5045589;28;20232;-80
2022/11/13 08:35:51;;;;;;;24.90;14.65;;;4.80;99.90;;;;;;5059540;28;20210;-81
2022/11/13 08:38:18;;;;;;;28.33;15.88;;;4.90;99.90;;;;;;5045846;28;20192;-80
2022/11/13 08:40:46;;;;;;;21.35;15.35;;;4.90;99.90;;;;;;5049335;28;20202;-79
2022/11/13 08:43:12;;;;;;;15.98;14.27;;;4.90;99.90;;;;;;5057102;28;20292;-82
2022/11/13 08:45:39;;;;;;;16.00;14.45;;;5.00;99.90;;;;;;5052215;28;20201;-81
2022/11/13 08:48:06;;;;;;;14.90;13.38;;;5.00;99.90;;;;;;5047046;28;20206;-83
2022/11/13 08:50:34;;;;;;;17.15;13.55;;;4.90;99.90;;;;;;5060856;28;20201;-81
2022/11/13 08:53:01;;;;;;;14.23;12.75;;;5.00;99.90;;;;;;5050574;28;20603;-81
2022/11/13 08:55:28;;;;;;;13.48;12.05;;;4.90;99.90;;;;;;5040920;28;20243;-80
2022/11/13 08:57:58;;;;;;;14.13;11.50;;;5.00;99.90;;;;;;5045479;28;20193;-80
2022/11/13 09:00:24;;;;;;;15.00;13.50;;;4.90;99.90;;;;;;5046235;28;20589;-81
2022/11/13 09:02:54;;;;;;;13.63;12.20;;;4.80;99.90;;;;;;5044672;28;20584;-82
2022/11/13 09:05:21;;;;;;;16.30;14.13;;;4.70;99.90;;;;;;5038810;28;20198;-82
2022/11/13 09:07:48;;;;;;;14.23;12.63;;;4.90;99.90;;;;;;5038153;28;20209;-81
2022/11/13 09:10:16;;;;;;;16.23;14.63;;;5.10;99.90;;;;;;5050447;28;20201;-82
2022/11/13 09:12:43;;;;;;;16.20;13.85;;;5.10;99.90;;;;;;5058738;28;20225;-82
2022/11/13 09:15:12;;;;;;;15.57;12.60;;;5.10;99.90;;;;;;5059125;28;20202;-81
2022/11/13 09:17:39;;;;;;;14.60;13.25;;;5.30;99.90;;;;;;5050741;28;20209;-80
2022/11/13 09:20:07;;;;;;;15.00;13.25;;;5.40;99.90;;;;;;5048551;28;20202;-82
2022/11/13 09:22:34;;;;;;;14.43;12.80;;;5.60;99.90;;;;;;5041174;28;20708;-82
2022/11/13 09:25:01;;;;;;;15.15;13.70;;;5.70;99.90;;;;;;5038924;28;20238;-82
2022/11/13 09:27:28;;;;;;;14.70;13.20;;;5.90;99.90;;;;;;5039059;28;20690;-82
2022/11/13 09:29:54;;;;;;;12.60;11.40;;;6.00;99.90;;;;;;5050252;28;20228;-82
2022/11/13 09:32:23;;;;;;;13.02;11.63;;;6.10;99.90;;;;;;5058817;28;20729;-82
2022/11/13 09:34:49;;;;;;;13.82;12.68;;;6.20;99.90;;;;;;5049292;28;20205;-83
2022/11/13 09:37:16;;;;;;;13.02;11.68;;;6.40;99.90;;;;;;5049564;28;20198;-82
2022/11/13 09:39:43;;;;;;;12.68;11.60;;;6.50;99.90;;;;;;5038890;28;20213;-82
2022/11/13 09:42:15;;;;;;;12.27;11.18;;;6.60;99.90;;;;;;5045837;28;20217;-81
2022/11/13 09:44:47;;;;;;;14.15;11.65;;;6.70;99.90;;;;;;5055316;28;20190;-82
2022/11/13 09:47:18;;;;;;;13.90;12.32;;;6.90;99.90;;;;;;5057001;28;20206;-82
2022/11/13 09:49:51;;;;;;;12.57;11.38;;;7.20;99.90;;;;;;5052947;28;20198;-82
2022/11/13 09:52:26;;;;;;;10.90;10.00;;;7.40;99.90;;;;;;5018067;28;20608;-82
2022/11/13 09:54:53;;;;;;;10.70;9.70;;;7.70;99.90;;;;;;5036348;28;20202;-82
2022/11/13 09:57:27;;;;;;;10.80;9.52;;;7.80;99.90;;;;;;5038114;28;20203;-83
2022/11/13 09:59:59;;;;;;;11.57;9.77;;;8.10;99.90;;;;;;5036496;28;20608;-83
2022/11/13 10:02:35;;;;;;;10.20;9.30;;;8.20;99.90;;;;;;5050107;28;20215;-82
2022/11/13 10:05:12;;;;;;;8.55;7.63;;;8.40;99.90;;;;;;5057527;28;20223;-82
2022/11/13 10:07:48;;;;;;;11.57;10.40;;;8.70;99.90;;;;;;5044362;28;20207;-83
2022/11/13 10:10:35;;;;;;;8.70;8.00;;;9.00;99.90;;;;;;5054871;28;20204;-83
2022/11/13 10:13:03;;;;;;;8.03;7.20;;;9.30;99.90;;;;;;5030795;28;20232;-82
2022/11/13 10:15:31;;;;;;;8.43;7.47;;;9.60;99.90;;;;;;5039681;28;20455;-83
2022/11/13 10:18:02;;;;;;;9.10;7.70;;;9.80;99.90;;;;;;5040847;28;20466;-83
2022/11/13 10:20:36;;;;;;;8.03;7.27;;;10.10;99.90;;;;;;5046837;28;20479;-83
2022/11/13 10:23:09;;;;;;;9.70;8.87;;;10.30;99.90;;;;;;5060792;28;20500;-83
2022/11/13 10:25:37;;;;;;;8.73;7.93;;;10.40;99.90;;;;;;5054538;28;20452;-83
2022/11/13 10:28:19;;;;;;;7.63;7.03;;;10.50;99.90;;;;;;5047560;28;20452;-83
2022/11/13 10:30:47;;;;;;;9.93;9.10;;;10.70;99.90;;;;;;5050968;28;20477;-83
2022/11/13 10:33:18;;;;;;;9.10;8.40;;;10.90;99.90;;;;;;5058780;28;20491;-83
2022/11/13 10:35:55;;;;;;;7.40;6.70;;;11.30;99.90;;;;;;5046890;28;20444;-83
2022/11/13 10:38:27;;;;;;;7.90;7.30;;;11.80;99.90;;;;;;5059910;28;20454;-83
2022/11/13 10:41:06;;;;;;;9.37;8.47;;;12.50;99.90;;;;;;5060936;28;20465;-83
2022/11/13 10:43:34;;;;;;;7.73;7.10;;;13.10;99.90;;;;;;5055176;28;20444;-83
2022/11/13 10:46:02;;;;;;;8.10;7.40;;;13.70;99.90;;;;;;5049658;28;20460;-81
2022/11/13 10:48:31;;;;;;;7.90;7.30;;;14.50;99.90;;;;;;5050332;28;20449;-82
2022/11/13 10:51:03;;;;;;;8.03;7.33;;;15.20;97.00;;;;;;5051452;28;20504;-81
2022/11/13 10:53:38;;;;;;;7.03;6.53;;;16.00;96.20;;;;;;5046397;28;20521;-81
2022/11/13 10:56:20;;;;;;;7.80;7.20;;;16.70;92.90;;;;;;5047535;28;20939;-81
2022/11/13 10:59:00;;;;;;;7.57;6.97;;;17.00;92.00;;;;;;5047321;28;20471;-83
2022/11/13 11:01:27;;;;;;;7.03;6.53;;;17.60;90.30;;;;;;5061639;28;20534;-83
2022/11/13 11:03:54;;;;;;;8.43;7.73;;;18.20;88.40;;;;;;5042919;28;20986;-83
2022/11/13 11:06:31;;;;;;;7.53;6.93;;;18.70;85.20;;;;;;5054588;28;20535;-83
2022/11/13 11:09:07;;;;;;;6.60;6.10;;;19.40;83.80;;;;;;5057315;28;20451;-83
2022/11/13 11:14:23;;;;;;;6.87;6.37;;;20.40;76.90;;;;;;5060171;28;20549;-84
2022/11/13 11:16:53;;;;;;;7.00;6.50;;;21.00;76.50;;;;;;5062188;28;20981;-83
2022/11/13 11:19:22;;;;;;;7.17;6.63;;;21.50;72.10;;;;;;5054416;28;20465;-83
2022/11/13 11:21:54;;;;;;;6.97;6.37;;;22.10;69.30;;;;;;5042429;28;20465;-84
2022/11/13 11:24:27;;;;;;;7.40;6.80;;;22.30;68.20;;;;;;5041753;28;20542;-83
2022/11/13 11:27:00;;;;;;;6.97;6.50;;;22.80;67.50;;;;;;5043259;28;20463;-83
2022/11/13 11:29:33;;;;;;;7.83;7.23;;;23.10;65.00;;;;;;5053576;28;20462;-83
2022/11/13 11:32:05;;;;;;;7.47;6.87;;;23.60;63.00;;;;;;5062648;28;20472;-84
2022/11/13 11:34:39;;;;;;;6.73;6.23;;;24.10;59.90;;;;;;5051144;28;20459;-84
2022/11/13 11:37:13;;;;;;;5.87;5.33;;;24.50;59.30;;;;;;5044733;28;20588;-83
2022/11/13 11:39:47;;;;;;;7.57;7.00;;;25.10;58.70;;;;;;5040689;28;20459;-81
2022/11/13 11:42:21;;;;;;;7.23;6.73;;;25.50;56.70;;;;;;5041702;28;20463;-79
2022/11/13 11:45:03;;;;;;;7.43;6.80;;;25.90;55.70;;;;;;5037534;28;20455;-80
2022/11/13 11:47:30;;;;;;;6.90;6.40;;;26.20;54.00;;;;;;5036726;28;20463;-77
2022/11/13 11:49:57;;;;;;;6.97;6.57;;;26.50;53.80;;;;;;5054860;28;20660;-81
2022/11/13 11:52:40;;;;;;;6.53;6.13;;;26.90;52.60;;;;;;5053309;28;20484;-81
2022/11/13 11:55:29;;;;;;;6.30;5.90;;;27.30;51.70;;;;;;5058730;28;20463;-80
2022/11/13 11:58:06;;;;;;;6.60;6.10;;;27.70;50.50;;;;;;5041338;28;20441;-79
2022/11/13 12:00:35;;;;;;;5.83;5.43;;;28.30;49.10;;;;;;5046869;28;20499;-82
2022/11/13 12:03:51;;;;;;;5.50;5.00;;;28.60;47.60;;;;;;5059282;28;20995;-84
2022/11/13 12:20:26;;;;;;;5.23;4.93;;;29.60;41.70;;;;;;4977632;28;20488;-84
2022/11/13 12:23:01;;;;;;;6.03;5.73;;;29.80;40.80;;;;;;4995398;28;20497;-83
2022/11/13 12:25:36;;;;;;;6.00;5.60;;;29.50;39.80;;;;;;5000866;28;20491;-85
2022/11/13 12:28:15;;;;;;;5.67;5.27;;;29.50;40.80;;;;;;5023739;28;20460;-84
2022/11/13 12:30:53;;;;;;;5.93;5.57;;;29.50;40.50;;;;;;5042956;28;20465;-85
2022/11/13 12:33:30;;;;;;;7.07;6.57;;;29.70;40.70;;;;;;5044387;28;20490;-85
2022/11/13 12:35:57;;;;;;;5.53;5.13;;;30.00;40.00;;;;;;5045164;28;20451;-85
2022/11/13 12:38:34;;;;;;;6.27;5.77;;;30.30;39.60;;;;;;5044608;28;20460;-85
2022/11/13 12:41:12;;;;;;;5.70;5.20;;;30.50;38.60;;;;;;5046862;28;20452;-84
2022/11/13 12:44:02;;;;;;;5.53;5.03;;;30.50;38.50;;;;;;5045545;28;20459;-84
2022/11/13 12:46:37;;;;;;;5.67;5.27;;;30.50;37.50;;;;;;5044996;28;20452;-84
2022/11/13 12:49:16;;;;;;;6.07;5.57;;;30.40;37.80;;;;;;5050106;28;20431;-81
2022/11/13 12:51:55;;;;;;;4.87;4.57;;;30.30;38.10;;;;;;5050941;28;20459;-84
2022/11/13 12:54:26;;;;;;;5.53;5.03;;;30.00;38.00;;;;;;5048880;28;20489;-83
2022/11/13 12:57:16;;;;;;;4.93;4.63;;;29.80;38.10;;;;;;5050292;28;20538;-84
2022/11/13 12:59:45;;;;;;;7.20;6.70;;;29.70;38.40;;;;;;5050736;28;20442;-82
2022/11/13 13:02:46;;;;;;;5.73;5.33;;;29.40;38.00;;;;;;5052321;28;20475;-84
2022/11/13 13:05:20;;;;;;;5.60;5.20;;;28.90;38.70;;;;;;5037573;28;20479;-84
2022/11/13 13:08:23;;;;;;;5.80;5.40;;;28.20;39.30;;;;;;5043222;28;20455;-84
2022/11/13 13:11:03;;;;;;;6.00;5.60;;;27.80;40.30;;;;;;5043360;28;20451;-84
2022/11/13 13:13:40;;;;;;;5.13;4.73;;;27.40;41.10;;;;;;5043672;28;20487;-85
2022/11/13 13:16:08;;;;;;;6.53;5.93;;;27.00;41.30;;;;;;5043415;28;20450;-84